Time;durP1;ratioP1;P1;durP2;ratioP2;P2;SDS_P1;SDS_P2;PMS_P1;PMS_P2;Temp;Humidity;BMP_temperature;BMP_pressure;BME280_temperature;BME280_humidity;BME280_pressure;Samples;Min_cycle;Max_cycle;Signal;HPM_P1;HPM_P2
2021/08/13 00:02:12;;;;;;;10.45;7.85;;;17.90;99.90;;;;;;4986154;28;20043;-80
2021/08/13 00:04:40;;;;;;;12.43;8.45;;;17.80;99.90;;;;;;4969804;28;20055;-80
2021/08/13 00:07:08;;;;;;;10.98;9.00;;;17.70;99.90;;;;;;4969300;28;20073;-80
2021/08/13 00:09:37;;;;;;;12.35;8.73;;;17.70;99.90;;;;;;4971515;28;20054;-80
2021/08/13 00:12:05;;;;;;;10.30;8.27;;;17.70;99.90;;;;;;4963598;28;20046;-78
2021/08/13 00:14:35;;;;;;;9.52;8.13;;;17.60;99.90;;;;;;4991221;28;20544;-82
2021/08/13 00:17:08;;;;;;;12.73;10.70;;;17.50;99.90;;;;;;4988562;28;20514;-83
2021/08/13 00:19:36;;;;;;;14.90;10.82;;;17.60;99.90;;;;;;4989070;28;20412;-83
2021/08/13 00:22:03;;;;;;;19.45;12.32;;;17.60;99.90;;;;;;4989686;28;20518;-82
2021/08/13 00:24:31;;;;;;;10.95;9.27;;;17.70;99.90;;;;;;4972708;28;20050;-82
2021/08/13 00:26:59;;;;;;;10.15;8.07;;;17.70;99.90;;;;;;4988705;28;20054;-83
2021/08/13 00:29:27;;;;;;;11.98;10.73;;;17.70;99.90;;;;;;4972956;28;20065;-83
2021/08/13 00:32:12;;;;;;;10.68;9.18;;;17.70;99.90;;;;;;4988717;28;20066;-83
2021/08/13 00:34:42;;;;;;;10.00;8.18;;;17.70;99.90;;;;;;4970000;28;20051;-83
2021/08/13 00:37:09;;;;;;;12.73;9.90;;;17.60;99.90;;;;;;4969185;28;20047;-82
2021/08/13 00:39:38;;;;;;;10.63;9.02;;;17.60;99.90;;;;;;4969348;28;20039;-82
2021/08/13 00:42:07;;;;;;;11.25;9.18;;;17.60;99.90;;;;;;4981162;28;20053;-83
2021/08/13 00:44:38;;;;;;;13.43;9.73;;;17.60;99.90;;;;;;4988899;28;20046;-83
2021/08/13 00:47:06;;;;;;;12.45;8.63;;;17.60;99.90;;;;;;4989942;28;20057;-83
2021/08/13 00:50:00;;;;;;;12.13;9.82;;;17.60;99.90;;;;;;4985603;28;20400;-82
2021/08/13 00:52:41;;;;;;;;;;;17.50;99.90;;;;;;4969374;28;20050;-83
2021/08/13 00:55:10;;;;;;;11.20;9.77;;;17.50;99.90;;;;;;4956201;28;19930;-83
2021/08/13 00:57:53;;;;;;;14.43;9.27;;;17.50;99.90;;;;;;4959505;28;20051;-83
2021/08/13 01:00:34;;;;;;;13.73;10.38;;;17.40;99.90;;;;;;4972899;28;20385;-83
2021/08/13 01:03:04;;;;;;;11.20;7.60;;;17.40;99.90;;;;;;4989317;28;20512;-83
2021/08/13 01:05:33;;;;;;;10.80;9.32;;;17.40;99.90;;;;;;4973786;28;20484;-82
2021/08/13 01:08:02;;;;;;;13.95;10.52;;;17.30;99.90;;;;;;4956896;28;20054;-83
2021/08/13 01:10:33;;;;;;;11.63;10.55;;;17.30;99.90;;;;;;4973268;28;20519;-83
2021/08/13 01:13:13;;;;;;;10.27;9.27;;;17.40;99.90;;;;;;4974833;28;20049;-83
2021/08/13 01:15:54;;;;;;;11.80;8.93;;;17.40;99.90;;;;;;4979344;28;20517;-83
2021/08/13 01:18:34;;;;;;;12.00;10.02;;;17.30;99.90;;;;;;4976486;28;20407;-83
2021/08/13 01:21:23;;;;;;;12.25;9.57;;;17.30;99.90;;;;;;4992792;28;20067;-82
2021/08/13 01:24:01;;;;;;;13.18;10.02;;;17.20;99.90;;;;;;4991879;28;20049;-83
2021/08/13 01:26:33;;;;;;;14.18;11.20;;;17.20;99.90;;;;;;4992749;28;20053;-83
2021/08/13 01:29:04;;;;;;;26.55;12.90;;;17.30;99.90;;;;;;4991715;28;20038;-83
2021/08/13 01:31:44;;;;;;;12.32;10.52;;;17.30;99.90;;;;;;4991408;28;20423;-83
2021/08/13 01:34:13;;;;;;;12.93;8.43;;;17.30;99.90;;;;;;4992301;28;20045;-83
2021/08/13 01:36:44;;;;;;;11.15;10.00;;;17.20;99.90;;;;;;4975124;28;20046;-83
2021/08/13 01:39:12;;;;;;;11.25;9.77;;;17.20;99.90;;;;;;4991955;28;20066;-83
2021/08/13 01:41:42;;;;;;;12.40;10.98;;;17.10;99.90;;;;;;4991825;28;20046;-83
2021/08/13 01:44:13;;;;;;;13.15;9.98;;;17.10;99.90;;;;;;4991702;28;20050;-83
2021/08/13 01:46:42;;;;;;;12.73;10.23;;;17.20;99.90;;;;;;4975933;28;20476;-83
2021/08/13 01:49:12;;;;;;;16.02;11.65;;;17.20;99.90;;;;;;4991494;28;20045;-83
2021/08/13 01:51:41;;;;;;;16.63;11.45;;;17.20;99.90;;;;;;4992552;28;20046;-83
2021/08/13 01:54:10;;;;;;;13.20;9.23;;;17.30;99.90;;;;;;4992166;28;20049;-83
2021/08/13 01:56:44;;;;;;;12.30;9.88;;;17.30;99.90;;;;;;4987875;28;20039;-83
2021/08/13 01:59:14;;;;;;;13.68;10.45;;;17.10;99.90;;;;;;4985463;28;20054;-80
2021/08/13 02:01:42;;;;;;;14.15;12.10;;;17.00;99.90;;;;;;4991628;28;20064;-80
2021/08/13 02:04:13;;;;;;;14.13;12.00;;;17.00;99.90;;;;;;4991397;28;20065;-80
2021/08/13 02:06:42;;;;;;;18.35;11.57;;;17.10;99.90;;;;;;4990270;28;20058;-80
2021/08/13 02:09:17;;;;;;;11.27;10.10;;;17.10;99.90;;;;;;4991297;28;20046;-80
2021/08/13 02:11:46;;;;;;;11.27;10.15;;;17.10;99.90;;;;;;4990149;28;20043;-81
2021/08/13 02:14:17;;;;;;;16.92;11.23;;;17.10;99.90;;;;;;4992054;28;20050;-82
2021/08/13 02:16:51;;;;;;;15.30;13.20;;;17.30;99.90;;;;;;4974874;28;20038;-82
2021/08/13 02:19:35;;;;;;;14.00;11.13;;;17.40;99.90;;;;;;4991304;28;20049;-82
2021/08/13 02:22:05;;;;;;;19.05;12.95;;;17.40;99.90;;;;;;4990382;28;20059;-80
2021/08/13 02:24:33;;;;;;;15.77;12.23;;;17.50;99.90;;;;;;4975188;28;20065;-79
2021/08/13 02:27:21;;;;;;;15.80;11.63;;;17.60;99.90;;;;;;4992091;28;20407;-83
2021/08/13 02:29:49;;;;;;;15.35;11.75;;;17.70;99.90;;;;;;4991596;28;20419;-83
2021/08/13 02:32:18;;;;;;;14.30;12.20;;;17.70;99.90;;;;;;4974303;28;20051;-83
2021/08/13 02:34:50;;;;;;;16.10;10.10;;;17.70;99.90;;;;;;4972142;28;20407;-83
2021/08/13 02:37:48;;;;;;;15.00;11.98;;;17.70;99.90;;;;;;4970861;28;20057;-83
2021/08/13 02:40:26;;;;;;;13.73;12.00;;;17.60;99.90;;;;;;4971300;28;20046;-83
2021/08/13 02:43:06;;;;;;;17.13;11.32;;;17.50;99.90;;;;;;4988118;28;20530;-83
2021/08/13 02:45:40;;;;;;;12.07;10.98;;;17.50;99.90;;;;;;4989484;28;20046;-83
2021/08/13 02:48:10;;;;;;;14.02;10.88;;;17.50;99.90;;;;;;4991952;28;20045;-80
2021/08/13 02:50:45;;;;;;;14.07;10.63;;;17.50;99.90;;;;;;4990657;28;20050;-80
2021/08/13 02:53:21;;;;;;;14.93;10.32;;;17.50;99.90;;;;;;4989999;28;20049;-80
2021/08/13 02:56:01;;;;;;;12.80;9.57;;;17.40;99.90;;;;;;4990347;28;20380;-82
2021/08/13 02:58:39;;;;;;;13.98;11.18;;;17.40;99.90;;;;;;4990954;28;20042;-83
2021/08/13 03:01:11;;;;;;;35.97;11.00;;;17.30;99.90;;;;;;4990068;28;20066;-79
2021/08/13 03:03:42;;;;;;;12.32;9.50;;;17.30;99.90;;;;;;4990510;28;20522;-80
2021/08/13 03:06:13;;;;;;;15.50;10.10;;;17.30;99.90;;;;;;4990914;28;20061;-83
2021/08/13 03:08:46;;;;;;;12.43;11.13;;;17.30;99.90;;;;;;4974031;28;20046;-83
2021/08/13 03:11:16;;;;;;;23.88;11.43;;;17.30;99.90;;;;;;4974037;28;20047;-83
2021/08/13 03:13:45;;;;;;;11.07;9.98;;;17.30;99.90;;;;;;4974419;28;20050;-83
2021/08/13 03:16:13;;;;;;;11.35;9.63;;;17.20;99.90;;;;;;4989347;28;20050;-82
2021/08/13 03:18:48;;;;;;;11.82;10.30;;;17.10;99.90;;;;;;4959146;28;20050;-82
2021/08/13 03:21:17;;;;;;;11.68;9.50;;;17.10;99.90;;;;;;4988925;28;20065;-82
2021/08/13 03:23:45;;;;;;;12.85;9.98;;;17.00;99.90;;;;;;4973210;28;20514;-82
2021/08/13 03:26:14;;;;;;;11.32;9.95;;;16.90;99.90;;;;;;4991652;28;20059;-83
2021/08/13 03:28:42;;;;;;;12.65;9.65;;;16.90;99.90;;;;;;4989051;28;20057;-82
2021/08/13 03:31:23;;;;;;;11.05;9.25;;;16.70;99.90;;;;;;4990600;28;20053;-82
2021/08/13 03:33:51;;;;;;;14.15;8.65;;;16.70;99.90;;;;;;4991418;28;20058;-82
2021/08/13 03:36:19;;;;;;;14.13;9.73;;;16.70;99.90;;;;;;4990684;28;20072;-82
2021/08/13 03:38:47;;;;;;;12.85;9.27;;;16.70;99.90;;;;;;4991511;28;20506;-83
2021/08/13 03:41:17;;;;;;;10.00;9.00;;;16.70;99.90;;;;;;4989405;28;20712;-82
2021/08/13 03:43:46;;;;;;;11.68;9.13;;;16.70;99.90;;;;;;4973527;28;20051;-82
2021/08/13 03:46:15;;;;;;;10.65;8.13;;;16.80;99.90;;;;;;4990022;28;20053;-83
2021/08/13 03:48:42;;;;;;;12.75;7.57;;;16.80;99.90;;;;;;4973237;28;20047;-82
2021/08/13 03:51:12;;;;;;;19.40;8.20;;;16.90;99.90;;;;;;4988843;28;20047;-82
2021/08/13 03:53:45;;;;;;;9.15;6.70;;;17.10;99.90;;;;;;4973865;28;20046;-82
2021/08/13 03:56:15;;;;;;;12.65;7.95;;;17.20;99.90;;;;;;4989515;28;20831;-83
2021/08/13 03:58:47;;;;;;;9.30;7.22;;;17.30;99.90;;;;;;4957723;28;20370;-83
2021/08/13 04:01:17;;;;;;;11.60;6.75;;;17.40;99.90;;;;;;4988956;28;20050;-82
2021/08/13 04:03:45;;;;;;;8.65;6.85;;;17.60;99.90;;;;;;4989532;28;20420;-82
2021/08/13 04:06:13;;;;;;;10.13;7.45;;;17.60;99.90;;;;;;4989438;28;20050;-83
2021/08/13 04:08:41;;;;;;;10.80;7.95;;;17.70;99.90;;;;;;4989251;28;20046;-82
2021/08/13 04:11:09;;;;;;;12.65;7.63;;;17.70;99.90;;;;;;4988964;28;20047;-82
2021/08/13 04:39:06;;;;;;;8.63;7.57;;;18.30;99.90;;;;;;4863012;29;20501;-82
2021/08/13 04:52:29;;;;;;;9.68;5.57;;;18.30;99.90;;;;;;4668383;30;20054;-82
2021/08/13 05:55:41;;;;;;;10.88;8.60;;;19.20;99.90;;;;;;6273914;22;20024;-82
2021/08/13 07:25:50;;;;;;;10.27;9.00;;;19.40;99.90;;;;;;5927338;23;20434;-82
2021/08/13 07:28:32;;;;;;;9.63;6.40;;;19.50;99.90;;;;;;5917827;23;20028;-79
2021/08/13 07:31:00;;;;;;;9.25;7.15;;;19.60;99.90;;;;;;6066342;23;20030;-80
2021/08/13 07:33:37;;;;;;;15.57;6.10;;;19.60;99.90;;;;;;6071379;23;20023;-79
2021/08/13 07:36:05;;;;;;;8.27;7.38;;;19.60;99.90;;;;;;6060809;23;20034;-79
2021/08/13 07:38:39;;;;;;;14.23;7.57;;;19.70;99.90;;;;;;6071455;23;20346;-78
2021/08/13 07:41:08;;;;;;;8.82;6.85;;;19.80;99.90;;;;;;6061775;23;20031;-80
2021/08/13 07:43:37;;;;;;;7.82;5.97;;;20.00;99.90;;;;;;6067605;23;20038;-83
2021/08/13 07:46:05;;;;;;;8.65;6.43;;;20.30;99.90;;;;;;6038310;23;20405;-82
2021/08/13 07:48:32;;;;;;;6.78;6.07;;;20.50;99.90;;;;;;6064475;23;20409;-83
2021/08/13 07:51:00;;;;;;;8.50;7.20;;;20.70;99.90;;;;;;6066037;23;20446;-83
2021/08/13 07:53:28;;;;;;;11.10;7.10;;;20.80;99.90;;;;;;6133120;23;20021;-83
2021/08/13 07:55:56;;;;;;;6.60;5.90;;;20.80;99.90;;;;;;6171005;23;20036;-83
2021/08/13 07:58:27;;;;;;;;;;;20.80;99.90;;;;;;6221041;23;20336;-83
2021/08/13 08:00:54;;;;;;;17.17;6.00;;;20.70;99.90;;;;;;6217003;23;19919;-83
2021/08/13 08:03:22;;;;;;;6.70;5.78;;;20.80;99.90;;;;;;6249935;23;20355;-83
2021/08/13 08:05:50;;;;;;;7.35;5.90;;;20.90;99.90;;;;;;6252210;23;20015;-83
2021/08/13 08:08:17;;;;;;;10.20;5.70;;;21.30;99.90;;;;;;6245863;23;20024;-83
2021/08/13 08:10:48;;;;;;;12.75;5.82;;;21.70;99.90;;;;;;6189747;23;20016;-83
2021/08/13 08:13:16;;;;;;;10.82;6.85;;;21.80;99.90;;;;;;6215043;23;20332;-82
2021/08/13 08:15:46;;;;;;;6.28;5.55;;;22.00;99.90;;;;;;6221429;23;20479;-83
2021/08/13 08:18:14;;;;;;;6.38;5.53;;;22.20;99.90;;;;;;6215188;23;20016;-83
2021/08/13 08:20:41;;;;;;;8.70;5.10;;;22.20;99.90;;;;;;6216775;23;20028;-83
2021/08/13 08:23:10;;;;;;;7.47;6.50;;;22.40;99.90;;;;;;6214948;23;20020;-84
2021/08/13 08:25:39;;;;;;;14.13;7.15;;;22.70;99.90;;;;;;6190602;23;20027;-84
2021/08/13 08:28:09;;;;;;;7.28;5.47;;;22.80;99.90;;;;;;6195588;23;20031;-84
2021/08/13 08:30:38;;;;;;;10.10;7.18;;;22.90;99.90;;;;;;6225734;23;20016;-83
2021/08/13 08:33:08;;;;;;;7.93;6.80;;;23.00;99.90;;;;;;6242367;23;20023;-83
2021/08/13 08:35:44;;;;;;;12.68;7.55;;;23.20;99.90;;;;;;6216008;23;20024;-84
2021/08/13 08:38:12;;;;;;;8.32;6.70;;;23.20;99.90;;;;;;6215385;23;20020;-83
2021/08/13 08:40:40;;;;;;;6.70;6.00;;;23.40;99.90;;;;;;6189286;23;20039;-83
2021/08/13 08:43:09;;;;;;;9.95;7.90;;;23.50;99.90;;;;;;6250273;23;20046;-84
2021/08/13 08:45:39;;;;;;;8.25;7.40;;;23.30;99.90;;;;;;6252108;23;20038;-83
2021/08/13 08:48:10;;;;;;;10.27;7.25;;;23.30;99.90;;;;;;6246544;23;20028;-84
2021/08/13 08:50:41;;;;;;;10.10;7.53;;;23.40;99.90;;;;;;6251537;23;20019;-84
2021/08/13 08:53:23;;;;;;;11.25;7.95;;;23.40;99.90;;;;;;6242112;23;20016;-83
2021/08/13 08:55:52;;;;;;;34.15;7.43;;;23.50;99.90;;;;;;6247614;23;20020;-83
2021/08/13 08:58:23;;;;;;;10.82;7.50;;;23.60;99.90;;;;;;6251770;23;20324;-83
2021/08/13 09:00:51;;;;;;;9.63;7.18;;;23.80;99.90;;;;;;6243448;23;20031;-84
2021/08/13 09:03:20;;;;;;;9.88;6.53;;;23.90;99.90;;;;;;6249808;23;20020;-83
2021/08/13 09:05:49;;;;;;;8.00;6.85;;;24.10;99.90;;;;;;6252230;23;20031;-82
2021/08/13 09:08:17;;;;;;;11.48;6.57;;;24.10;99.90;;;;;;6245390;23;20028;-83
2021/08/13 09:10:49;;;;;;;14.27;8.35;;;24.20;99.90;;;;;;6251829;23;20008;-83
2021/08/13 09:13:22;;;;;;;10.30;8.30;;;24.20;99.90;;;;;;6214201;23;20020;-84
2021/08/13 09:15:52;;;;;;;9.75;6.45;;;24.10;99.90;;;;;;6247727;23;20360;-84
2021/08/13 09:18:22;;;;;;;9.02;8.13;;;24.30;99.90;;;;;;6251954;23;20008;-83
2021/08/13 09:20:56;;;;;;;7.10;6.40;;;24.10;99.90;;;;;;6242408;23;20027;-83
2021/08/13 09:23:32;;;;;;;8.05;6.55;;;24.10;99.90;;;;;;6249265;23;20020;-84
2021/08/13 09:26:09;;;;;;;7.75;6.97;;;24.10;99.90;;;;;;6251791;23;20012;-85
2021/08/13 09:29:00;;;;;;;7.93;6.47;;;24.00;99.90;;;;;;6242353;23;20025;-84
2021/08/13 09:31:51;;;;;;;11.77;7.38;;;24.30;99.90;;;;;;6247297;23;20031;-85
2021/08/13 09:34:31;;;;;;;9.65;8.25;;;24.50;99.90;;;;;;6214637;23;20024;-85
2021/08/13 09:36:58;;;;;;;10.10;7.63;;;24.80;99.90;;;;;;6242174;23;20324;-84
2021/08/13 09:39:33;;;;;;;11.13;6.72;;;24.90;99.90;;;;;;6248557;23;20473;-82
2021/08/13 09:42:07;;;;;;;9.57;6.68;;;25.00;99.90;;;;;;6224834;23;20012;-82
2021/08/13 09:44:38;;;;;;;12.68;7.53;;;25.20;99.90;;;;;;6217559;23;20027;-82
2021/08/13 09:47:05;;;;;;;7.60;6.85;;;25.30;99.90;;;;;;6223489;23;20443;-81
2021/08/13 09:49:36;;;;;;;7.20;6.50;;;25.40;99.90;;;;;;6214253;23;20013;-82
2021/08/13 09:52:18;;;;;;;10.15;6.93;;;25.60;99.90;;;;;;6247320;23;20063;-83
2021/08/13 09:54:48;;;;;;;10.40;6.50;;;25.60;99.90;;;;;;6191569;23;20020;-83
2021/08/13 09:57:17;;;;;;;7.47;6.78;;;25.70;99.90;;;;;;6243080;23;20028;-82
2021/08/13 10:00:06;;;;;;;9.05;6.50;;;25.80;99.90;;;;;;6197827;23;20537;-82
2021/08/13 10:02:42;;;;;;;10.48;7.00;;;25.90;99.90;;;;;;6227093;23;20466;-83
2021/08/13 10:05:24;;;;;;;9.85;7.40;;;25.90;99.90;;;;;;6215214;23;20348;-82
2021/08/13 10:08:00;;;;;;;13.85;7.00;;;26.00;99.90;;;;;;6191768;23;20028;-82
2021/08/13 10:10:31;;;;;;;11.15;8.73;;;26.10;99.90;;;;;;6190852;23;20026;-81
2021/08/13 10:13:07;;;;;;;15.52;8.32;;;26.10;99.90;;;;;;6215332;23;20359;-81
2021/08/13 10:15:47;;;;;;;11.68;7.63;;;26.20;99.90;;;;;;6193164;23;20055;-82
2021/08/13 10:18:18;;;;;;;11.52;7.00;;;26.20;99.90;;;;;;6227055;23;20027;-83
2021/08/13 10:20:56;;;;;;;7.60;5.93;;;26.20;99.90;;;;;;6216845;23;20474;-82
2021/08/13 10:23:27;;;;;;;10.30;7.82;;;26.30;99.90;;;;;;6215638;22;20031;-83
2021/08/13 10:25:57;;;;;;;9.88;7.22;;;26.40;99.90;;;;;;6202017;23;20012;-82
2021/08/13 10:28:30;;;;;;;7.65;6.85;;;26.50;99.90;;;;;;6218916;23;20043;-82
2021/08/13 10:31:04;;;;;;;6.85;6.07;;;26.60;99.90;;;;;;6225136;23;20364;-82
2021/08/13 10:33:43;;;;;;;8.35;5.25;;;26.50;99.90;;;;;;6192648;23;20016;-82
2021/08/13 10:36:15;;;;;;;6.40;4.78;;;26.50;99.90;;;;;;6220681;23;20355;-82
2021/08/13 10:38:45;;;;;;;13.65;7.20;;;26.30;99.90;;;;;;6253725;23;20016;-83
2021/08/13 10:41:14;;;;;;;6.13;5.47;;;26.40;99.90;;;;;;6189347;23;20020;-82
2021/08/13 10:43:45;;;;;;;9.15;6.63;;;26.50;99.90;;;;;;6197624;23;20024;-83
2021/08/13 10:46:20;;;;;;;10.70;7.05;;;26.60;99.90;;;;;;6201731;23;20023;-82
2021/08/13 10:48:51;;;;;;;6.43;5.13;;;26.80;99.90;;;;;;6212884;23;20032;-83
2021/08/13 10:51:32;;;;;;;14.50;6.55;;;26.80;99.90;;;;;;6223124;23;20035;-82
2021/08/13 10:54:15;;;;;;;6.95;6.18;;;26.80;99.90;;;;;;6203077;23;20031;-82
2021/08/13 10:56:48;;;;;;;10.40;5.95;;;26.70;99.90;;;;;;6189579;23;20043;-82
2021/08/13 10:59:41;;;;;;;8.63;6.72;;;26.60;99.90;;;;;;6201023;22;20016;-82
2021/08/13 11:02:18;;;;;;;6.75;5.65;;;26.70;99.90;;;;;;6190347;23;20016;-82
2021/08/13 11:04:52;;;;;;;6.57;5.78;;;26.80;99.90;;;;;;6217445;23;20047;-82
2021/08/13 11:07:59;;;;;;;8.05;5.82;;;26.90;99.90;;;;;;6166086;23;20032;-82
2021/08/13 11:10:38;;;;;;;8.70;3.88;;;26.90;99.90;;;;;;6226110;23;20016;-82
2021/08/13 11:13:11;;;;;;;6.22;3.65;;;27.00;99.90;;;;;;6215807;23;20017;-82
2021/08/13 11:15:40;;;;;;;8.97;3.73;;;27.00;99.90;;;;;;6165806;23;20020;-80
2021/08/13 11:18:37;;;;;;;4.60;3.45;;;27.20;99.90;;;;;;6190258;23;20340;-82
2021/08/13 11:21:09;;;;;;;4.57;4.15;;;27.20;99.90;;;;;;6215094;23;20039;-81
2021/08/13 11:23:57;;;;;;;5.18;4.30;;;27.30;99.90;;;;;;6196973;23;20032;-81
2021/08/13 11:26:58;;;;;;;6.90;4.10;;;27.50;99.90;;;;;;6202256;23;20019;-82
2021/08/13 11:29:33;;;;;;;5.90;4.63;;;27.60;99.90;;;;;;6249055;23;20024;-82
2021/08/13 11:32:14;;;;;;;7.20;4.97;;;27.70;99.90;;;;;;6219783;23;20031;-81
2021/08/13 11:35:04;;;;;;;3.70;3.15;;;27.60;99.90;;;;;;6226300;23;20012;-82
2021/08/13 11:37:57;;;;;;;3.95;3.33;;;27.70;99.90;;;;;;6249315;23;20024;-82
2021/08/13 11:40:30;;;;;;;6.82;4.28;;;27.70;99.90;;;;;;6218384;23;20028;-81
2021/08/13 11:43:02;;;;;;;6.05;4.80;;;27.90;99.90;;;;;;6224794;23;20016;-82
2021/08/13 11:45:35;;;;;;;6.95;4.47;;;27.90;99.90;;;;;;6189759;23;20020;-82
2021/08/13 11:48:10;;;;;;;6.15;4.13;;;27.90;99.90;;;;;;6210785;23;20032;-82
2021/08/13 11:50:40;;;;;;;4.82;3.85;;;27.80;99.90;;;;;;6194935;23;20019;-83
2021/08/13 11:53:08;;;;;;;9.77;4.53;;;27.80;99.90;;;;;;6158846;23;20024;-81
2021/08/13 11:55:37;;;;;;;4.20;3.88;;;27.90;99.90;;;;;;6191998;23;20444;-82
2021/08/13 11:58:06;;;;;;;4.80;3.42;;;27.90;99.90;;;;;;6195103;23;20019;-82
2021/08/13 12:00:39;;;;;;;4.00;3.60;;;27.90;99.90;;;;;;6188344;23;20044;-82
2021/08/13 12:03:10;;;;;;;5.28;2.60;;;28.00;99.90;;;;;;6193997;23;20013;-83
2021/08/13 12:05:42;;;;;;;4.35;3.28;;;28.10;99.90;;;;;;6160223;23;20064;-82
2021/08/13 12:08:16;;;;;;;5.20;3.08;;;28.20;99.90;;;;;;6189455;23;20080;-81
2021/08/13 12:10:52;;;;;;;5.93;3.67;;;28.20;99.90;;;;;;6195426;23;20013;-82
2021/08/13 12:20:28;;;;;;;3.20;2.30;;;28.50;99.90;;;;;;6208028;23;20028;-83
2021/08/13 12:29:03;;;;;;;7.20;3.05;;;28.40;99.90;;;;;;6109222;23;20075;-82
2021/08/13 12:32:29;;;;;;;8.20;3.75;;;28.60;99.90;;;;;;6059714;23;20036;-83
2021/08/13 12:36:45;;;;;;;6.47;2.97;;;28.50;96.50;;;;;;6021332;23;20529;-82
2021/08/13 12:40:26;;;;;;;;;;;;;;;;;;;;;
2021/08/13 12:44:08;;;;;;;6.90;3.58;;;28.40;97.10;;;;;;5900193;24;20036;-82
2021/08/13 12:47:28;;;;;;;5.80;3.30;;;28.40;96.80;;;;;;5865117;24;20032;-83
2021/08/13 12:51:29;;;;;;;4.82;3.60;;;28.50;97.80;;;;;;5797840;24;20388;-81
2021/08/13 12:54:50;;;;;;;3.42;3.13;;;28.40;96.00;;;;;;5799532;24;20023;-84
2021/08/13 12:57:24;;;;;;;3.40;2.93;;;28.40;95.60;;;;;;5814353;24;20022;-82
2021/08/13 13:00:12;;;;;;;4.63;3.63;;;28.30;96.00;;;;;;5899596;23;20032;-82
2021/08/13 13:02:44;;;;;;;6.10;2.97;;;28.40;97.80;;;;;;6008549;23;20026;-82
2021/08/13 13:05:13;;;;;;;10.00;3.40;;;28.50;97.50;;;;;;6040509;23;20037;-84
2021/08/13 13:07:41;;;;;;;8.30;4.68;;;28.60;95.90;;;;;;6072162;23;20022;-81
2021/08/13 13:10:19;;;;;;;4.97;3.65;;;28.70;97.80;;;;;;6074360;23;20022;-82
2021/08/13 13:12:49;;;;;;;2.70;2.47;;;28.70;98.90;;;;;;6067145;23;20030;-82
2021/08/13 13:15:30;;;;;;;5.43;3.67;;;28.70;96.80;;;;;;6073810;23;20346;-81
2021/08/13 13:18:03;;;;;;;7.10;4.10;;;28.70;99.90;;;;;;6097367;23;20354;-82
2021/08/13 13:20:36;;;;;;;4.82;2.65;;;28.70;98.30;;;;;;6117399;23;20026;-84
2021/08/13 13:23:35;;;;;;;4.28;2.53;;;28.70;94.60;;;;;;6118659;23;20795;-82
2021/08/13 13:26:22;;;;;;;27.50;3.58;;;28.70;96.10;;;;;;6162026;23;20031;-82
2021/08/13 13:29:16;;;;;;;5.90;2.95;;;28.80;96.30;;;;;;6188469;23;20024;-82
2021/08/13 13:31:50;;;;;;;3.35;2.28;;;29.10;94.50;;;;;;6192549;23;20027;-82
2021/08/13 13:34:56;;;;;;;2.95;2.17;;;29.10;95.80;;;;;;6185512;23;20329;-83
2021/08/13 13:37:34;;;;;;;5.22;2.97;;;29.10;92.30;;;;;;6195843;23;20029;-84
2021/08/13 13:40:02;;;;;;;3.58;2.28;;;29.10;93.60;;;;;;6185502;23;20032;-83
2021/08/13 13:42:29;;;;;;;3.20;2.70;;;29.00;90.30;;;;;;6161692;23;20355;-81
2021/08/13 13:45:07;;;;;;;3.53;1.73;;;29.10;92.50;;;;;;6187677;23;20043;-82
2021/08/13 13:47:35;;;;;;;7.03;2.17;;;29.10;95.90;;;;;;6184523;23;20036;-81
2021/08/13 13:50:03;;;;;;;3.80;2.60;;;29.10;96.90;;;;;;6196530;23;20027;-82
2021/08/13 13:52:33;;;;;;;3.22;2.47;;;29.10;92.80;;;;;;6189268;23;20032;-82
2021/08/13 13:55:07;;;;;;;3.58;2.22;;;29.10;92.50;;;;;;6195741;23;20020;-81
2021/08/13 13:57:36;;;;;;;6.45;3.45;;;29.20;91.60;;;;;;6196704;23;20023;-83
2021/08/13 14:00:08;;;;;;;3.33;1.85;;;29.20;93.80;;;;;;6190848;23;20024;-81
2021/08/13 14:02:44;;;;;;;11.98;3.40;;;29.20;91.60;;;;;;6162707;23;20353;-82
2021/08/13 14:05:15;;;;;;;7.22;1.65;;;29.30;93.80;;;;;;6186124;23;20020;-82
2021/08/13 14:07:48;;;;;;;4.45;2.63;;;29.30;93.20;;;;;;6192654;23;20490;-83
2021/08/13 14:10:20;;;;;;;3.92;2.63;;;29.30;91.20;;;;;;6195550;23;20016;-82
2021/08/13 14:12:49;;;;;;;2.75;2.35;;;29.30;88.50;;;;;;6187816;23;20460;-82
2021/08/13 14:15:19;;;;;;;9.30;2.38;;;29.10;86.60;;;;;;6194743;23;20021;-83
2021/08/13 14:17:48;;;;;;;6.00;3.03;;;29.10;90.90;;;;;;6197222;23;20013;-84
2021/08/13 14:20:19;;;;;;;3.03;2.28;;;29.10;86.20;;;;;;6185486;23;20044;-84
2021/08/13 14:22:47;;;;;;;6.05;2.55;;;29.00;82.20;;;;;;6196834;23;20023;-83
2021/08/13 14:25:19;;;;;;;8.48;2.17;;;28.90;85.70;;;;;;6186775;23;20035;-82
2021/08/13 14:27:47;;;;;;;2.03;1.77;;;28.80;86.50;;;;;;6192471;23;20028;-81
2021/08/13 14:30:17;;;;;;;7.13;2.33;;;28.80;86.70;;;;;;6196572;23;20024;-83
2021/08/13 14:32:44;;;;;;;3.10;2.15;;;28.80;86.80;;;;;;6213197;23;20040;-83
2021/08/13 14:35:15;;;;;;;4.07;2.33;;;28.80;88.20;;;;;;6218825;23;20415;-82
2021/08/13 14:37:44;;;;;;;12.73;2.50;;;29.00;91.30;;;;;;6196243;23;20013;-82
2021/08/13 14:40:13;;;;;;;13.47;3.20;;;29.20;91.30;;;;;;6190094;23;20032;-82
2021/08/13 14:42:44;;;;;;;5.03;2.72;;;29.50;88.00;;;;;;6196042;23;20009;-82
2021/08/13 14:45:17;;;;;;;8.18;3.28;;;29.60;89.70;;;;;;6185868;23;20028;-82
2021/08/13 14:47:45;;;;;;;11.13;2.80;;;29.60;90.10;;;;;;6192171;23;20483;-82
2021/08/13 14:50:13;;;;;;;8.07;2.50;;;29.60;87.60;;;;;;6195847;23;20072;-83
2021/08/13 14:52:41;;;;;;;10.40;2.70;;;29.50;87.00;;;;;;6160279;23;20037;-82
2021/08/13 14:55:17;;;;;;;4.47;2.58;;;29.40;90.50;;;;;;6194621;23;20016;-82
2021/08/13 14:57:48;;;;;;;4.05;2.40;;;29.50;90.00;;;;;;6196442;23;20028;-82
2021/08/13 15:00:17;;;;;;;6.22;2.80;;;29.60;90.50;;;;;;6189452;23;20031;-82
2021/08/13 15:02:45;;;;;;;8.52;2.88;;;29.70;92.30;;;;;;6196248;23;20020;-82
2021/08/13 15:05:13;;;;;;;10.68;2.28;;;29.80;91.30;;;;;;6212496;23;20064;-83
2021/08/13 15:07:42;;;;;;;10.13;2.35;;;29.70;90.50;;;;;;6168022;23;20016;-85
2021/08/13 15:10:10;;;;;;;4.53;2.15;;;29.70;84.10;;;;;;6184927;23;20025;-82
2021/08/13 15:12:38;;;;;;;13.65;3.42;;;29.50;86.80;;;;;;6188005;23;20024;-83
2021/08/13 15:15:07;;;;;;;13.95;3.13;;;29.40;85.10;;;;;;6219429;23;20017;-86
2021/08/13 15:17:37;;;;;;;8.48;2.97;;;29.20;86.60;;;;;;6222796;23;20429;-83
2021/08/13 15:20:06;;;;;;;6.90;2.88;;;29.00;85.70;;;;;;6159283;23;20029;-82
2021/08/13 15:22:34;;;;;;;7.93;2.42;;;28.90;82.30;;;;;;6159846;23;20060;-82
2021/08/13 15:25:02;;;;;;;8.38;2.75;;;29.00;88.30;;;;;;6212897;23;20032;-83
2021/08/13 15:27:33;;;;;;;11.27;2.70;;;29.00;83.50;;;;;;6218983;23;20027;-82
2021/08/13 15:30:06;;;;;;;6.15;2.55;;;29.00;85.40;;;;;;6212335;23;20016;-82
2021/08/13 15:32:34;;;;;;;3.80;1.95;;;29.10;84.20;;;;;;6188600;23;20029;-81
2021/08/13 15:35:05;;;;;;;8.38;2.60;;;29.20;90.10;;;;;;6221444;23;20448;-81
2021/08/13 15:37:33;;;;;;;5.97;2.80;;;29.20;87.30;;;;;;6222951;23;20440;-81
2021/08/13 15:40:01;;;;;;;6.72;2.10;;;29.20;90.00;;;;;;6216423;23;20028;-81
2021/08/13 15:42:29;;;;;;;13.10;4.10;;;29.10;90.40;;;;;;6222126;23;20012;-82
2021/08/13 15:44:57;;;;;;;9.15;2.85;;;29.20;90.80;;;;;;6186915;23;20025;-83
2021/08/13 15:47:24;;;;;;;5.65;2.72;;;29.20;87.00;;;;;;6209882;23;20028;-83
2021/08/13 15:49:52;;;;;;;7.85;3.25;;;29.10;84.60;;;;;;6222147;23;20017;-83
2021/08/13 15:52:22;;;;;;;6.40;2.95;;;29.00;86.80;;;;;;6215476;23;20353;-82
2021/08/13 15:54:50;;;;;;;7.63;3.60;;;29.00;87.40;;;;;;6221842;23;20027;-82
2021/08/13 15:57:18;;;;;;;8.95;2.10;;;29.00;90.90;;;;;;6184951;23;20021;-82
2021/08/13 15:59:45;;;;;;;7.57;3.13;;;29.10;92.00;;;;;;6218342;23;20364;-84
2021/08/13 16:02:13;;;;;;;6.93;2.67;;;29.30;84.90;;;;;;6195674;23;20016;-83
2021/08/13 16:04:41;;;;;;;8.85;2.75;;;29.20;83.30;;;;;;6214124;23;20028;-82
2021/08/13 16:07:09;;;;;;;19.25;4.00;;;29.10;89.30;;;;;;6193593;23;20020;-83
2021/08/13 16:09:36;;;;;;;5.88;2.83;;;29.10;85.90;;;;;;6222147;23;20023;-83
2021/08/13 16:12:08;;;;;;;10.85;3.28;;;29.00;84.40;;;;;;6189610;23;20711;-82
2021/08/13 16:14:36;;;;;;;6.65;2.70;;;28.90;87.60;;;;;;6195307;23;20017;-84
2021/08/13 16:17:04;;;;;;;7.22;2.90;;;28.90;83.00;;;;;;6186292;23;20032;-84
2021/08/13 16:19:32;;;;;;;8.25;3.38;;;28.70;82.80;;;;;;6215961;23;20032;-82
2021/08/13 16:22:02;;;;;;;;;;;28.60;85.00;;;;;;6210859;23;20024;-81
2021/08/13 16:24:32;;;;;;;12.93;4.72;;;28.30;87.10;;;;;;6214839;23;19946;-81
2021/08/13 16:27:00;;;;;;;;;;;28.30;84.90;;;;;;6220873;23;20017;-80
2021/08/13 16:29:28;;;;;;;9.73;3.25;;;28.50;89.50;;;;;;6214104;23;19920;-80
2021/08/13 16:31:56;;;;;;;6.97;3.97;;;28.60;89.20;;;;;;6216750;23;20020;-79
2021/08/13 16:34:24;;;;;;;13.88;3.78;;;28.60;89.80;;;;;;6221262;23;20013;-80
2021/08/13 16:36:52;;;;;;;10.27;3.65;;;28.60;83.60;;;;;;6212686;23;20039;-79